Time;durP1;ratioP1;P1;durP2;ratioP2;P2;SDS_P1;SDS_P2;PMS_P1;PMS_P2;Temp;Humidity;BMP_temperature;BMP_pressure;BME280_temperature;BME280_humidity;BME280_pressure;Samples;Min_cycle;Max_cycle;Signal;HPM_P1;HPM_P2
2024/01/09 00:00:35;;;;;;;23.05;8.95;;;;;;;-7.21;69.19;100583.34;5028022;28;20472;-77
2024/01/09 00:03:01;;;;;;;21.92;9.40;;;;;;;-7.75;69.23;100582.28;5024898;28;20520;-76
2024/01/09 00:05:26;;;;;;;22.02;9.30;;;;;;;-8.11;70.32;100582.69;5020561;28;20478;-77
2024/01/09 00:07:51;;;;;;;17.83;9.88;;;;;;;-8.05;70.39;100579.75;5022247;28;20072;-76
2024/01/09 00:10:17;;;;;;;18.42;9.68;;;;;;;-8.16;70.36;100582.13;5024452;28;20088;-76
2024/01/09 00:12:42;;;;;;;19.50;8.88;;;;;;;-8.17;71.09;100579.63;5022981;28;20051;-77
2024/01/09 00:15:09;;;;;;;26.88;9.80;;;;;;;-8.10;71.11;100574.00;5028828;28;20033;-76
2024/01/09 00:17:35;;;;;;;16.55;9.43;;;;;;;-8.74;71.39;100591.53;5027685;28;20021;-76
2024/01/09 00:20:01;;;;;;;19.60;8.80;;;;;;;-8.47;72.27;100582.22;5026494;28;20064;-76
2024/01/09 00:22:26;;;;;;;19.73;9.95;;;;;;;-8.20;71.62;100583.22;5026655;28;20037;-76
2024/01/09 00:24:51;;;;;;;18.05;8.80;;;;;;;-8.10;71.04;100586.13;5028265;28;20097;-76
2024/01/09 00:27:17;;;;;;;19.52;9.45;;;;;;;-8.07;70.82;100578.16;5024378;28;20021;-76
2024/01/09 00:29:42;;;;;;;21.77;10.32;;;;;;;-8.26;71.13;100572.41;5026484;28;20521;-77
2024/01/09 00:32:07;;;;;;;18.23;9.27;;;;;;;-8.60;71.89;100582.06;5030768;28;20046;-76
2024/01/09 00:34:33;;;;;;;15.35;8.57;;;;;;;-8.30;72.09;100573.50;5028322;28;20029;-76
2024/01/09 00:36:58;;;;;;;19.08;9.77;;;;;;;-8.29;71.68;100578.59;5034515;28;20056;-76
2024/01/09 00:39:24;;;;;;;20.98;8.77;;;;;;;-8.50;71.59;100572.91;5033524;28;20039;-77
2024/01/09 00:41:49;;;;;;;22.67;9.45;;;;;;;-7.86;71.82;100588.09;5032632;28;20053;-76
2024/01/09 00:44:14;;;;;;;19.15;9.52;;;;;;;-7.78;71.07;100585.09;5026894;28;20397;-77
2024/01/09 00:46:40;;;;;;;21.42;9.52;;;;;;;-7.95;71.09;100586.06;5033351;28;20032;-77
2024/01/09 00:49:05;;;;;;;28.42;11.50;;;;;;;-7.72;70.33;100582.13;5032185;28;20107;-76
2024/01/09 00:51:30;;;;;;;21.85;9.45;;;;;;;-7.08;70.94;100579.91;5029751;28;20114;-76
2024/01/09 00:53:56;;;;;;;19.75;10.50;;;;;;;-7.51;69.47;100582.63;5029610;28;20059;-76
2024/01/09 00:56:22;;;;;;;25.35;10.60;;;;;;;-7.73;69.78;100570.91;5029809;28;20029;-76
2024/01/09 00:58:47;;;;;;;17.92;10.65;;;;;;;-7.59;70.10;100577.03;5030807;28;20107;-76
2024/01/09 01:01:13;;;;;;;20.20;9.45;;;;;;;-7.72;69.79;100585.56;5023769;28;20026;-76
2024/01/09 01:03:38;;;;;;;23.17;9.98;;;;;;;-8.05;70.38;100578.91;5032114;28;20099;-76
2024/01/09 01:06:04;;;;;;;25.65;11.10;;;;;;;-8.23;71.17;100585.97;5027417;28;20044;-78
2024/01/09 01:08:29;;;;;;;20.20;9.88;;;;;;;-8.57;71.76;100576.72;5034705;28;20091;-78
2024/01/09 01:10:54;;;;;;;25.52;11.02;;;;;;;-8.36;71.63;100584.22;5033386;28;20156;-77
2024/01/09 01:13:20;;;;;;;22.08;10.40;;;;;;;-8.11;71.60;100585.28;5035338;28;20029;-77
2024/01/09 01:15:45;;;;;;;23.80;10.13;;;;;;;-7.32;72.13;100573.63;5032548;28;20033;-78
2024/01/09 01:18:11;;;;;;;18.17;10.30;;;;;;;-7.77;70.47;100584.97;5031830;28;20029;-78
2024/01/09 01:20:36;;;;;;;22.15;10.52;;;;;;;-7.92;72.72;100585.03;5021954;28;20108;-78
2024/01/09 01:23:01;;;;;;;20.45;10.65;;;;;;;-7.81;70.59;100580.91;5026830;28;20111;-78
2024/01/09 01:25:27;;;;;;;20.23;10.75;;;;;;;-7.79;70.79;100584.25;5026980;28;20033;-78
2024/01/09 01:27:52;;;;;;;21.70;10.93;;;;;;;-7.89;70.84;100575.34;5031448;28;20045;-77
2024/01/09 01:30:18;;;;;;;24.15;9.50;;;;;;;-7.65;71.06;100589.47;5028111;28;20119;-79
2024/01/09 01:32:44;;;;;;;26.25;9.85;;;;;;;-7.42;69.83;100576.84;5033675;28;20048;-79
2024/01/09 01:35:09;;;;;;;21.15;10.75;;;;;;;-7.10;68.76;100586.13;5038879;28;20033;-78
2024/01/09 01:37:35;;;;;;;19.52;9.38;;;;;;;-6.56;69.25;100577.47;5030541;28;20391;-78
2024/01/09 01:40:00;;;;;;;22.80;9.73;;;;;;;-6.27;68.56;100579.00;5035535;28;20033;-78
2024/01/09 01:42:25;;;;;;;20.83;9.38;;;;;;;-5.65;66.84;100586.97;5035192;28;20029;-78
2024/01/09 01:44:51;;;;;;;23.67;9.80;;;;;;;-5.88;66.29;100583.38;5054097;28;20059;-78
2024/01/09 01:47:17;;;;;;;18.13;9.60;;;;;;;-7.40;67.81;100583.63;5037606;28;20041;-77
2024/01/09 01:49:43;;;;;;;23.10;9.85;;;;;;;-7.14;68.75;100598.44;5033531;28;20044;-77
2024/01/09 01:52:10;;;;;;;20.52;9.52;;;;;;;-5.87;68.10;100574.63;5034239;28;20030;-78
2024/01/09 01:54:37;;;;;;;19.83;9.48;;;;;;;-5.43;66.06;100587.19;5036906;28;20099;-78
2024/01/09 01:57:05;;;;;;;22.80;10.50;;;;;;;-5.71;65.33;100584.78;5036157;28;20486;-78
2024/01/09 01:59:34;;;;;;;24.30;9.77;;;;;;;-6.57;65.95;100570.59;5030042;28;20041;-78
2024/01/09 02:02:02;;;;;;;22.33;10.45;;;;;;;-5.87;67.65;100572.03;5027080;28;20383;-78
2024/01/09 02:04:29;;;;;;;20.17;9.55;;;;;;;-6.19;67.79;100570.72;5031581;28;20479;-78
2024/01/09 02:06:54;;;;;;;27.33;11.60;;;;;;;-5.82;66.13;100571.69;5032099;28;20087;-78
2024/01/09 02:09:21;;;;;;;22.65;10.65;;;;;;;-5.84;66.23;100569.22;5036151;28;20040;-78
2024/01/09 02:11:48;;;;;;;22.77;10.43;;;;;;;-6.45;65.71;100569.81;5032825;28;20031;-78
2024/01/09 02:14:14;;;;;;;24.05;9.90;;;;;;;-6.13;66.82;100565.97;5031307;28;20038;-78
2024/01/09 02:16:39;;;;;;;27.45;11.15;;;;;;;-5.49;66.03;100561.59;5029984;28;20029;-78
2024/01/09 02:19:05;;;;;;;19.25;10.27;;;;;;;-5.42;65.24;100552.44;5034175;28;20037;-79
2024/01/09 02:21:30;;;;;;;18.77;9.30;;;;;;;-5.30;65.38;100567.19;5029514;28;20102;-78
2024/01/09 02:23:56;;;;;;;24.65;11.20;;;;;;;-6.32;66.11;100568.09;5034351;28;20064;-78
2024/01/09 02:26:29;;;;;;;18.65;9.85;;;;;;;-5.60;66.28;100551.09;5032445;28;20030;-78
2024/01/09 02:28:58;;;;;;;20.70;10.25;;;;;;;-7.29;67.83;100575.19;5031417;28;20034;-78
2024/01/09 02:31:24;;;;;;;24.48;11.15;;;;;;;-6.70;67.06;100569.72;5031669;28;20033;-78
2024/01/09 02:33:50;;;;;;;26.88;11.15;;;;;;;-6.56;67.39;100574.88;5033875;28;20047;-77
2024/01/09 02:36:15;;;;;;;20.58;9.52;;;;;;;-5.90;67.56;100576.59;5035552;28;20119;-77
2024/01/09 02:38:41;;;;;;;19.85;10.45;;;;;;;-5.62;66.04;100573.78;5033515;28;20147;-78
2024/01/09 02:41:06;;;;;;;25.05;11.55;;;;;;;-6.78;67.38;100578.91;5037121;28;20029;-78
2024/01/09 02:43:31;;;;;;;21.15;10.40;;;;;;;-5.87;67.30;100565.97;5033559;28;20086;-77
2024/01/09 02:45:57;;;;;;;27.63;12.40;;;;;;;-6.66;66.95;100578.16;5026285;28;20038;-77
2024/01/09 02:48:22;;;;;;;24.00;11.00;;;;;;;-6.97;67.63;100581.84;5028193;28;20025;-77
2024/01/09 02:50:48;;;;;;;21.85;10.05;;;;;;;-5.70;67.16;100570.88;5027750;28;20113;-77
2024/01/09 02:53:13;;;;;;;24.08;11.35;;;;;;;-6.03;67.26;100560.16;5025106;28;20029;-77
2024/01/09 02:55:38;;;;;;;22.50;11.13;;;;;;;-6.53;66.26;100571.25;5022942;28;20037;-76
2024/01/09 02:58:04;;;;;;;20.35;10.52;;;;;;;-6.89;68.17;100562.25;5031443;28;20034;-76
2024/01/09 03:00:30;;;;;;;24.42;10.63;;;;;;;-6.73;67.31;100559.53;5026165;28;20032;-77
2024/01/09 03:02:55;;;;;;;23.60;10.40;;;;;;;-6.87;67.95;100556.97;5023163;28;20592;-77
2024/01/09 03:05:21;;;;;;;26.17;11.85;;;;;;;-5.94;67.74;100554.34;5026306;28;20108;-77
2024/01/09 03:07:46;;;;;;;20.45;11.38;;;;;;;-6.48;66.05;100557.03;5029107;28;20091;-77
2024/01/09 03:10:11;;;;;;;21.92;10.35;;;;;;;-6.04;67.35;100554.13;5025950;28;20029;-77
2024/01/09 03:12:37;;;;;;;23.40;10.82;;;;;;;-5.88;66.79;100543.53;5025380;28;21771;-77
2024/01/09 03:15:02;;;;;;;24.35;11.50;;;;;;;-5.91;66.88;100543.72;5024535;28;20052;-77
2024/01/09 03:17:31;;;;;;;22.20;11.10;;;;;;;-5.65;66.60;100550.56;5029835;28;20451;-77
2024/01/09 03:19:56;;;;;;;25.38;10.45;;;;;;;-5.51;65.88;100547.88;5027924;28;20029;-77
2024/01/09 03:22:21;;;;;;;23.60;10.55;;;;;;;-6.01;66.64;100545.28;5027846;28;20506;-77
2024/01/09 03:24:47;;;;;;;23.00;11.73;;;;;;;-5.79;66.25;100548.09;5026133;28;20490;-77
2024/01/09 03:27:12;;;;;;;22.85;10.93;;;;;;;-6.32;65.60;100542.13;5027910;28;20047;-78
2024/01/09 03:29:39;;;;;;;21.88;10.18;;;;;;;-6.03;67.02;100545.41;5024741;28;20033;-77
2024/01/09 03:32:05;;;;;;;23.52;11.15;;;;;;;-5.61;66.31;100550.25;5022576;28;20022;-77
2024/01/09 03:34:31;;;;;;;24.05;11.43;;;;;;;-5.49;66.08;100544.25;5023251;28;20045;-77
2024/01/09 03:36:56;;;;;;;19.40;10.68;;;;;;;-5.48;65.41;100543.28;5030831;28;20402;-78
2024/01/09 03:39:21;;;;;;;27.23;12.05;;;;;;;-5.41;64.84;100538.50;5029627;28;20061;-77
2024/01/09 03:41:47;;;;;;;18.92;9.77;;;;;;;-5.42;65.34;100522.03;5030503;28;20375;-78
2024/01/09 03:44:12;;;;;;;23.70;11.00;;;;;;;-5.41;65.28;100522.88;5026185;28;20049;-77
2024/01/09 03:46:38;;;;;;;25.45;10.32;;;;;;;-5.43;65.01;100514.34;5023903;28;20494;-77
2024/01/09 03:49:03;;;;;;;22.67;10.30;;;;;;;-5.46;65.38;100522.41;5028231;28;20032;-77
2024/01/09 03:51:29;;;;;;;21.15;10.15;;;;;;;-5.35;64.73;100523.28;5034651;28;20163;-77
2024/01/09 03:53:54;;;;;;;27.30;11.45;;;;;;;-5.49;64.80;100509.59;5029831;28;20040;-77
2024/01/09 03:56:20;;;;;;;22.02;10.43;;;;;;;-5.38;65.65;100512.28;5027860;28;20030;-77
2024/01/09 03:58:45;;;;;;;17.02;10.77;;;;;;;-5.48;65.59;100509.47;5033905;28;20033;-77
2024/01/09 04:01:10;;;;;;;21.67;11.25;;;;;;;-5.44;64.98;100510.09;5027741;28;20033;-77
2024/01/09 04:03:36;;;;;;;17.02;9.90;;;;;;;-5.43;65.42;100511.75;5028626;28;20033;-77
2024/01/09 04:06:02;;;;;;;21.20;10.30;;;;;;;-5.59;64.70;100517.19;5025368;28;20037;-78
2024/01/09 04:08:28;;;;;;;25.52;10.50;;;;;;;-5.57;65.09;100511.91;5023102;28;20502;-78
2024/01/09 04:10:53;;;;;;;22.50;9.85;;;;;;;-5.57;64.75;100511.91;5022421;28;20067;-78
2024/01/09 04:13:19;;;;;;;24.98;12.13;;;;;;;-5.65;65.28;100524.56;5027788;28;20029;-78
2024/01/09 04:15:45;;;;;;;20.48;9.93;;;;;;;-5.54;65.50;100524.66;5025595;28;20025;-79
2024/01/09 04:18:10;;;;;;;21.58;11.18;;;;;;;-6.26;64.94;100525.28;5021991;28;20048;-79
2024/01/09 04:20:35;;;;;;;26.27;11.32;;;;;;;-5.75;66.31;100520.94;5026641;28;20387;-78
2024/01/09 04:23:01;;;;;;;22.27;11.40;;;;;;;-5.66;65.23;100512.53;5022768;28;20395;-78
2024/01/09 04:25:26;;;;;;;22.90;11.40;;;;;;;-5.55;65.50;100521.22;5024036;28;20038;-78
2024/01/09 04:27:52;;;;;;;22.67;10.32;;;;;;;-5.58;64.61;100510.22;5029917;28;20037;-79
2024/01/09 04:30:17;;;;;;;20.38;10.93;;;;;;;-5.67;65.53;100516.88;5025801;28;20478;-78
2024/01/09 04:32:42;;;;;;;26.42;13.00;;;;;;;-5.78;65.35;100515.94;5028712;28;20087;-76
2024/01/09 04:35:08;;;;;;;18.45;9.10;;;;;;;-5.66;65.54;100509.91;5028125;28;20033;-76
2024/01/09 04:37:33;;;;;;;27.45;11.20;;;;;;;-5.75;65.14;100502.75;5020031;28;20041;-78
2024/01/09 04:39:59;;;;;;;26.48;11.57;;;;;;;-5.70;64.92;100506.69;5023194;28;20116;-77
2024/01/09 04:42:24;;;;;;;27.27;10.98;;;;;;;-5.57;64.95;100498.91;5027175;28;20021;-78
2024/01/09 04:44:50;;;;;;;20.33;10.43;;;;;;;-5.67;65.00;100508.25;5027389;28;20501;-78
2024/01/09 04:47:15;;;;;;;21.38;9.98;;;;;;;-5.72;64.66;100498.16;5027286;28;20557;-78
2024/01/09 04:49:44;;;;;;;19.63;9.80;;;;;;;-5.65;64.24;100490.75;5027201;28;20038;-78
2024/01/09 04:52:10;;;;;;;21.33;10.25;;;;;;;-5.66;64.20;100502.13;5021982;28;20029;-76
2024/01/09 04:54:35;;;;;;;19.73;9.75;;;;;;;-5.69;64.27;100503.16;5027106;28;20041;-76
2024/01/09 04:57:01;;;;;;;23.75;9.52;;;;;;;-5.76;64.47;100509.72;5029120;28;20068;-76
2024/01/09 04:59:26;;;;;;;18.27;9.30;;;;;;;-5.89;64.64;100489.88;5024410;28;20402;-77
2024/01/09 05:01:52;;;;;;;19.65;9.15;;;;;;;-5.88;64.93;100512.34;5030797;28;20021;-78
2024/01/09 05:04:17;;;;;;;21.27;8.90;;;;;;;-5.93;65.21;100512.66;5025710;28;20033;-76
2024/01/09 05:06:43;;;;;;;19.05;10.07;;;;;;;-6.01;65.02;100499.34;5024673;28;20038;-76
2024/01/09 05:09:09;;;;;;;25.23;9.85;;;;;;;-5.88;65.25;100504.53;5026058;28;20053;-76
2024/01/09 05:11:35;;;;;;;23.63;10.35;;;;;;;-6.62;65.66;100510.38;5024433;28;20076;-76
2024/01/09 05:14:00;;;;;;;21.58;9.95;;;;;;;-6.28;66.03;100501.19;5023990;28;20041;-76
2024/01/09 05:16:27;;;;;;;21.50;11.30;;;;;;;-7.30;66.00;100512.13;5024103;28;20393;-76
2024/01/09 05:18:53;;;;;;;21.75;11.27;;;;;;;-7.11;66.53;100504.03;5030077;28;20386;-76
2024/01/09 05:21:18;;;;;;;22.42;12.45;;;;;;;-7.77;68.43;100507.25;5029706;28;20029;-76
2024/01/09 05:23:43;;;;;;;30.38;14.90;;;;;;;-7.25;68.60;100506.66;5029189;28;20025;-76
2024/01/09 05:26:09;;;;;;;24.13;12.10;;;;;;;-6.62;67.87;100507.78;5028939;28;20057;-76
2024/01/09 05:28:34;;;;;;;28.83;11.38;;;;;;;-7.94;66.82;100511.75;5027190;28;20033;-75
2024/01/09 05:31:01;;;;;;;25.92;12.25;;;;;;;-6.96;69.02;100516.88;5030703;28;20083;-76
2024/01/09 05:33:26;;;;;;;29.55;13.95;;;;;;;-7.03;69.22;100501.78;5027322;28;20063;-76
2024/01/09 05:35:52;;;;;;;25.77;10.90;;;;;;;-6.78;68.83;100501.88;5031062;28;20061;-77
2024/01/09 05:38:17;;;;;;;18.58;11.13;;;;;;;-7.15;66.55;100507.75;5029704;28;20060;-77
2024/01/09 05:40:42;;;;;;;23.75;13.23;;;;;;;-6.93;68.91;100505.47;5028004;28;20038;-77
2024/01/09 05:43:08;;;;;;;22.58;10.00;;;;;;;-6.32;67.22;100508.34;5029139;28;20025;-77
2024/01/09 05:45:33;;;;;;;27.83;13.15;;;;;;;-6.26;66.35;100507.94;5027723;28;20033;-77
2024/01/09 05:47:59;;;;;;;21.20;11.63;;;;;;;-7.02;68.03;100519.84;5028869;28;20279;-77
2024/01/09 05:50:24;;;;;;;21.13;10.93;;;;;;;-6.66;67.41;100513.25;5026126;28;20068;-76
2024/01/09 05:52:49;;;;;;;25.25;10.68;;;;;;;-6.42;67.32;100514.25;5027212;28;20029;-76
2024/01/09 05:55:15;;;;;;;27.83;11.10;;;;;;;-6.51;66.80;100507.88;5023976;28;20032;-76
2024/01/09 05:57:40;;;;;;;28.27;11.85;;;;;;;-6.51;67.75;100510.47;5027306;28;20049;-77
2024/01/09 06:00:06;;;;;;;26.33;11.75;;;;;;;-6.32;66.58;100510.94;5023780;28;20043;-77
2024/01/09 06:02:32;;;;;;;22.98;11.07;;;;;;;-6.17;66.39;100516.88;5020895;28;20397;-76
2024/01/09 06:04:57;;;;;;;25.20;11.40;;;;;;;-6.56;66.85;100519.50;5022418;28;20475;-77
2024/01/09 06:07:22;;;;;;;26.17;11.05;;;;;;;-6.66;66.30;100511.47;5029031;28;20553;-76
2024/01/09 06:09:48;;;;;;;24.75;10.35;;;;;;;-7.70;68.66;100524.09;5027956;28;20060;-76
2024/01/09 06:12:13;;;;;;;24.77;12.45;;;;;;;-7.85;68.62;100525.00;5030285;28;20045;-76
2024/01/09 06:14:41;;;;;;;28.17;12.23;;;;;;;-8.23;70.86;100517.84;5025715;28;21648;-78
2024/01/09 06:17:07;;;;;;;20.60;11.80;;;;;;;-7.50;69.86;100525.47;5029215;28;20097;-78
2024/01/09 06:19:32;;;;;;;27.58;11.88;;;;;;;-8.56;71.41;100528.41;5031134;28;20065;-77
2024/01/09 06:21:57;;;;;;;29.05;13.52;;;;;;;-8.93;72.85;100524.44;5028691;28;20045;-77
2024/01/09 06:24:23;;;;;;;29.15;13.40;;;;;;;-8.38;72.84;100529.94;5025532;28;20037;-77
2024/01/09 06:26:48;;;;;;;25.58;13.27;;;;;;;-9.40;73.36;100532.19;5031915;28;20128;-77
2024/01/09 06:29:14;;;;;;;27.77;12.68;;;;;;;-8.57;74.91;100529.31;5019809;28;20037;-77
2024/01/09 06:31:42;;;;;;;29.75;13.18;;;;;;;-7.43;71.32;100531.97;5021871;28;20064;-77
2024/01/09 06:34:07;;;;;;;27.85;13.05;;;;;;;-7.07;70.05;100523.66;5031840;28;20394;-77
2024/01/09 06:36:33;;;;;;;23.25;12.20;;;;;;;-8.64;71.94;100528.00;5030234;28;20025;-77
2024/01/09 06:38:58;;;;;;;25.63;11.65;;;;;;;-8.00;72.51;100533.69;5030296;28;20051;-77
2024/01/09 06:41:24;;;;;;;30.73;14.07;;;;;;;-7.37;70.23;100541.97;5030276;28;20029;-77
2024/01/09 06:43:50;;;;;;;25.73;12.68;;;;;;;-8.38;70.56;100535.09;5031194;28;20049;-77
2024/01/09 06:46:16;;;;;;;25.42;13.00;;;;;;;-7.71;69.11;100537.97;5029317;28;20029;-77
2024/01/09 06:48:41;;;;;;;30.75;13.23;;;;;;;-8.58;71.58;100544.00;5028376;28;20040;-77
2024/01/09 06:51:06;;;;;;;27.40;12.30;;;;;;;-9.04;73.10;100549.25;5028689;28;20025;-77
2024/01/09 06:53:32;;;;;;;24.20;12.05;;;;;;;-9.68;74.35;100546.66;5029330;28;20041;-76
2024/01/09 06:55:57;;;;;;;32.05;12.75;;;;;;;-9.71;75.13;100552.81;5028440;28;20033;-76
2024/01/09 06:58:23;;;;;;;27.73;12.55;;;;;;;-9.49;76.31;100548.19;5025858;28;20041;-76
2024/01/09 07:00:48;;;;;;;30.60;13.13;;;;;;;-9.66;75.92;100556.00;5019319;28;20040;-76
2024/01/09 07:03:13;;;;;;;36.30;13.38;;;;;;;-9.13;76.79;100555.75;5028047;28;20078;-76
2024/01/09 07:05:39;;;;;;;31.20;13.30;;;;;;;-9.68;76.26;100554.41;5028327;28;20700;-76
2024/01/09 07:08:04;;;;;;;25.33;12.57;;;;;;;-9.77;76.48;100550.53;5026015;28;20045;-76
2024/01/09 07:10:30;;;;;;;34.35;14.35;;;;;;;-7.87;74.61;100557.13;5028982;28;20032;-77
2024/01/09 07:12:56;;;;;;;31.10;14.38;;;;;;;-8.52;73.15;100548.00;5027356;28;20490;-77
2024/01/09 07:15:21;;;;;;;31.08;14.73;;;;;;;-9.37;74.71;100544.94;5027895;28;20838;-76
2024/01/09 07:17:47;;;;;;;28.13;14.63;;;;;;;-8.37;74.46;100544.56;5026286;28;20030;-77
2024/01/09 07:20:12;;;;;;;31.15;14.23;;;;;;;-7.82;71.37;100545.53;5021621;28;20048;-77
2024/01/09 07:22:38;;;;;;;30.48;14.15;;;;;;;-8.50;72.94;100559.09;5026382;28;20059;-77
2024/01/09 07:25:03;;;;;;;33.88;15.05;;;;;;;-8.13;73.03;100560.41;5024372;28;20060;-76
2024/01/09 07:27:29;;;;;;;31.95;14.30;;;;;;;-7.38;71.69;100555.03;5026978;28;20062;-76
2024/01/09 07:29:54;;;;;;;37.65;16.60;;;;;;;-7.83;70.54;100561.19;5024607;28;20561;-77
2024/01/09 07:32:20;;;;;;;33.30;14.70;;;;;;;-7.11;70.96;100563.69;5038387;28;20096;-76
2024/01/09 07:34:47;;;;;;;35.60;14.93;;;;;;;-7.54;70.54;100569.81;5043478;28;20037;-76
2024/01/09 07:37:13;;;;;;;41.47;15.52;;;;;;;-8.66;71.85;100568.63;5033155;28;20041;-76
2024/01/09 07:39:39;;;;;;;33.00;14.43;;;;;;;-7.83;73.03;100574.97;5024917;28;20048;-76
2024/01/09 07:42:04;;;;;;;33.30;15.80;;;;;;;-6.69;69.86;100552.38;5026262;28;20482;-76
2024/01/09 07:44:29;;;;;;;31.92;14.48;;;;;;;-6.44;68.64;100557.69;5026376;28;20529;-76
2024/01/09 07:46:55;;;;;;;32.88;15.10;;;;;;;-8.98;70.53;100569.59;5026610;28;22102;-76
2024/01/09 07:49:21;;;;;;;33.92;15.52;;;;;;;-9.31;74.90;100577.41;5024994;28;20026;-76
2024/01/09 07:51:46;;;;;;;30.30;15.73;;;;;;;-7.64;72.20;100560.00;5025266;28;20030;-76
2024/01/09 07:54:12;;;;;;;35.80;16.27;;;;;;;-6.89;71.38;100566.63;5028885;28;20040;-76
2024/01/09 07:56:37;;;;;;;35.00;14.90;;;;;;;-6.64;69.15;100579.69;5027966;28;20117;-75
2024/01/09 07:59:03;;;;;;;30.10;13.82;;;;;;;-6.54;68.42;100569.56;5024650;28;20036;-76
2024/01/09 08:01:30;;;;;;;35.25;14.73;;;;;;;-6.43;68.58;100570.56;5025784;28;20032;-76
2024/01/09 08:03:55;;;;;;;28.05;14.23;;;;;;;-6.34;68.09;100576.91;5025743;28;20044;-76
2024/01/09 08:06:21;;;;;;;25.85;14.23;;;;;;;-6.30;67.65;100574.03;5025537;28;20025;-76
2024/01/09 08:08:46;;;;;;;32.83;15.05;;;;;;;-7.28;68.27;100590.66;5021999;28;20438;-76
2024/01/09 08:11:11;;;;;;;37.25;15.45;;;;;;;-6.91;69.68;100577.09;5023955;28;20029;-76
2024/01/09 08:13:37;;;;;;;35.47;15.93;;;;;;;-6.62;69.89;100577.88;5018316;28;20044;-76
2024/01/09 08:16:03;;;;;;;36.70;15.95;;;;;;;-7.65;69.02;100575.66;5021556;28;20033;-76
2024/01/09 08:18:29;;;;;;;36.08;16.35;;;;;;;-6.75;70.62;100587.34;5025918;28;20084;-76
2024/01/09 08:20:55;;;;;;;31.00;14.95;;;;;;;-6.62;69.27;100577.88;5019934;28;20429;-76
2024/01/09 08:23:21;;;;;;;24.77;13.45;;;;;;;-6.47;68.69;100578.63;5027539;28;20034;-76
2024/01/09 08:25:46;;;;;;;31.63;14.15;;;;;;;-7.09;71.47;100578.22;5028848;28;20375;-76
2024/01/09 08:28:11;;;;;;;34.10;15.75;;;;;;;-6.51;69.75;100575.38;5025076;28;20121;-76
2024/01/09 08:30:37;;;;;;;31.25;13.80;;;;;;;-6.51;68.80;100566.78;5028436;28;20104;-76
2024/01/09 08:33:02;;;;;;;32.70;14.52;;;;;;;-7.01;68.94;100585.56;5022351;28;20111;-75
2024/01/09 08:35:28;;;;;;;30.10;13.93;;;;;;;-6.65;69.68;100588.44;5023831;28;20790;-75
2024/01/09 08:37:53;;;;;;;33.90;15.02;;;;;;;-6.82;71.04;100578.28;5026469;28;20029;-75
2024/01/09 08:40:18;;;;;;;29.20;14.20;;;;;;;-6.76;69.55;100593.47;5022379;28;20033;-75
2024/01/09 08:42:44;;;;;;;31.27;13.57;;;;;;;-6.99;69.82;100604.44;5028620;28;20050;-75
2024/01/09 08:45:11;;;;;;;33.40;13.48;;;;;;;-7.73;71.85;100606.38;5026080;28;20731;-75
2024/01/09 08:47:37;;;;;;;28.65;13.88;;;;;;;-8.08;73.19;100611.00;5021913;28;20698;-75
2024/01/09 08:50:04;;;;;;;31.23;15.48;;;;;;;-7.89;73.44;100598.66;5022240;28;20073;-75
2024/01/09 08:52:30;;;;;;;38.22;13.70;;;;;;;-8.43;74.38;100594.91;5025142;28;20627;-75
2024/01/09 08:54:55;;;;;;;29.88;14.93;;;;;;;-8.90;75.28;100590.69;5020704;28;20033;-75
2024/01/09 08:57:20;;;;;;;31.48;13.65;;;;;;;-8.22;74.93;100603.19;5020734;28;20486;-76
2024/01/09 08:59:47;;;;;;;29.17;13.77;;;;;;;-8.45;75.15;100594.16;5015720;28;20033;-75
2024/01/09 09:02:12;;;;;;;31.83;14.57;;;;;;;-7.79;75.62;100597.19;5018399;28;20036;-75
2024/01/09 09:04:38;;;;;;;32.15;14.35;;;;;;;-7.93;74.29;100609.28;5020735;28;20026;-75
2024/01/09 09:07:03;;;;;;;26.95;12.52;;;;;;;-8.62;75.19;100607.19;5030711;28;20394;-75
2024/01/09 09:09:30;;;;;;;32.17;14.18;;;;;;;-8.08;75.91;100600.63;5028259;28;20044;-76
2024/01/09 09:11:58;;;;;;;26.60;14.23;;;;;;;-8.20;75.23;100611.69;5024620;28;20034;-76
2024/01/09 09:14:24;;;;;;;28.95;13.35;;;;;;;-8.55;74.89;100615.47;5026708;28;20028;-76
2024/01/09 09:16:49;;;;;;;27.52;13.32;;;;;;;-8.94;75.61;100613.31;5029779;28;20033;-75
2024/01/09 09:19:14;;;;;;;25.77;11.52;;;;;;;-8.31;76.35;100608.06;5028769;28;20494;-75
2024/01/09 09:21:40;;;;;;;27.52;12.95;;;;;;;-8.12;75.64;100596.56;5030158;28;20484;-75
2024/01/09 09:24:05;;;;;;;28.75;11.35;;;;;;;-8.85;75.23;100607.63;5031156;28;20040;-75
2024/01/09 09:26:32;;;;;;;20.77;12.05;;;;;;;-9.02;75.90;100610.31;5028052;28;20710;-75
2024/01/09 09:28:58;;;;;;;22.48;10.73;;;;;;;-8.87;75.84;100604.31;5029064;28;20060;-75
2024/01/09 09:31:23;;;;;;;27.73;11.90;;;;;;;-8.87;75.72;100603.47;5029563;28;20068;-75
2024/01/09 09:33:49;;;;;;;25.80;11.70;;;;;;;-8.80;75.62;100608.19;5030700;28;20036;-75
2024/01/09 09:36:14;;;;;;;28.40;13.35;;;;;;;-8.66;75.37;100602.28;5027469;28;20034;-75
2024/01/09 09:38:40;;;;;;;28.02;11.32;;;;;;;-8.80;74.08;100600.44;5028274;28;20520;-75
2024/01/09 09:41:06;;;;;;;27.52;12.02;;;;;;;-8.39;74.39;100599.91;5028299;28;20029;-75
2024/01/09 09:43:35;;;;;;;23.05;11.63;;;;;;;-7.48;73.88;100603.16;5027636;28;20046;-75
2024/01/09 09:46:01;;;;;;;20.50;10.55;;;;;;;-7.57;74.01;100603.69;5031375;28;20086;-75
2024/01/09 09:48:27;;;;;;;23.00;11.15;;;;;;;-8.20;73.08;100600.50;5030738;28;20417;-75
2024/01/09 09:50:55;;;;;;;20.25;11.05;;;;;;;-8.16;73.33;100596.81;5024711;28;20038;-75
2024/01/09 09:53:28;;;;;;;23.33;10.32;;;;;;;-8.50;72.66;100598.78;5027927;28;20047;-75
2024/01/09 09:55:53;;;;;;;22.45;11.43;;;;;;;-8.08;72.85;100605.00;5022186;28;20530;-74
2024/01/09 09:58:19;;;;;;;24.90;11.43;;;;;;;-8.13;73.16;100581.13;5029215;28;20029;-74
2024/01/09 10:00:45;;;;;;;22.35;9.60;;;;;;;-6.89;73.18;100577.00;5017841;28;20022;-75
2024/01/09 10:03:11;;;;;;;28.38;12.23;;;;;;;-7.91;70.30;100589.31;5025740;28;20476;-75
2024/01/09 10:05:40;;;;;;;20.88;10.40;;;;;;;-7.43;71.46;100577.78;5026536;28;20529;-75
2024/01/09 10:08:11;;;;;;;22.38;11.93;;;;;;;-7.52;71.94;100583.53;5030711;28;20036;-75
2024/01/09 10:10:37;;;;;;;27.20;9.52;;;;;;;-6.03;71.39;100586.13;5029370;28;20030;-75
2024/01/09 10:13:03;;;;;;;26.67;11.55;;;;;;;-7.92;69.34;100579.84;5025277;28;20402;-75
2024/01/09 10:15:29;;;;;;;21.50;10.63;;;;;;;-7.25;71.56;100582.69;5027087;28;20029;-75
2024/01/09 10:17:54;;;;;;;24.33;10.88;;;;;;;-7.93;70.35;100568.66;5023736;28;20037;-75
2024/01/09 10:20:20;;;;;;;29.08;11.48;;;;;;;-7.94;71.15;100577.38;5031416;28;20036;-75
2024/01/09 10:22:45;;;;;;;27.45;12.30;;;;;;;-7.20;70.96;100579.81;5026952;28;20056;-75
2024/01/09 10:25:12;;;;;;;20.92;9.75;;;;;;;-7.07;71.70;100572.94;5031347;28;20033;-75
2024/01/09 10:27:39;;;;;;;21.63;10.60;;;;;;;-7.57;70.20;100557.88;5023270;28;20033;-75
2024/01/09 10:30:07;;;;;;;26.98;12.55;;;;;;;-7.16;69.38;100563.97;5031089;28;20017;-75
2024/01/09 10:32:33;;;;;;;22.73;11.07;;;;;;;-7.29;69.23;100570.84;5028599;28;20041;-75
2024/01/09 10:34:58;;;;;;;22.95;10.65;;;;;;;-7.06;68.88;100559.06;5025364;28;20029;-75
2024/01/09 10:37:24;;;;;;;22.83;12.13;;;;;;;-7.71;69.06;100563.88;5026517;28;20098;-75
2024/01/09 10:39:50;;;;;;;22.52;11.02;;;;;;;-7.01;70.94;100559.59;5027050;28;20034;-75
2024/01/09 10:42:16;;;;;;;23.35;11.07;;;;;;;-7.73;69.26;100545.00;5027343;28;20025;-75
2024/01/09 10:44:41;;;;;;;22.05;10.68;;;;;;;-7.56;69.87;100549.19;5023753;28;20110;-76
2024/01/09 10:47:14;;;;;;;32.65;14.38;;;;;;;-6.46;69.69;100543.94;5030253;28;20489;-76
2024/01/09 10:49:42;;;;;;;35.72;12.70;;;;;;;-7.08;69.29;100533.22;5026284;28;20172;-76
2024/01/09 10:52:15;;;;;;;23.25;12.45;;;;;;;-6.68;69.35;100534.09;5028562;28;20029;-76
2024/01/09 10:54:41;;;;;;;27.38;12.10;;;;;;;-6.95;68.66;100538.47;5024615;28;20025;-76
2024/01/09 10:57:11;;;;;;;26.63;12.23;;;;;;;-6.50;69.76;100532.09;5031170;28;20025;-76
2024/01/09 10:59:39;;;;;;;20.45;10.85;;;;;;;-7.09;68.33;100523.75;5031066;28;20026;-75
2024/01/09 11:02:08;;;;;;;20.13;10.25;;;;;;;-7.02;67.92;100529.41;5030909;28;20165;-76
2024/01/09 11:04:33;;;;;;;20.50;10.68;;;;;;;-6.88;67.71;100529.38;5024388;28;20132;-76